Time;durP1;ratioP1;P1;durP2;ratioP2;P2;SDS_P1;SDS_P2;PMS_P1;PMS_P2;Temp;Humidity;BMP_temperature;BMP_pressure;BME280_temperature;BME280_humidity;BME280_pressure;Samples;Min_cycle;Max_cycle;Signal;HPM_P1;HPM_P2
2023/02/19 00:01:18;;;;;;;0.25;0.25;;;;;;;;;;4984772;28;20412;-76
2023/02/19 00:03:47;;;;;;;0.75;0.47;;;;;;;;;;4987471;28;20030;-76
2023/02/19 00:06:13;;;;;;;2.97;0.35;;;;;;;;;;4986242;28;20019;-76
2023/02/19 00:08:40;;;;;;;0.85;0.65;;;;;;;;;;4985610;28;20023;-76
2023/02/19 00:11:07;;;;;;;0.63;0.57;;;;;;;;;;4989785;28;20506;-77
2023/02/19 00:13:40;;;;;;;0.77;0.38;;;;;;;;;;4988765;28;20037;-76
2023/02/19 00:16:07;;;;;;;2.25;0.45;;;;;;;;;;4983327;28;20113;-76
2023/02/19 00:18:33;;;;;;;0.68;0.50;;;;;;;;;;4985166;28;20033;-77
2023/02/19 00:20:59;;;;;;;0.30;0.30;;;;;;;;;;4985522;28;20031;-77
2023/02/19 00:23:26;;;;;;;0.30;0.30;;;;;;;;;;4984235;28;20029;-77
2023/02/19 00:25:52;;;;;;;0.30;0.30;;;;;;;;;;4989020;28;20050;-76
2023/02/19 00:28:18;;;;;;;0.30;0.30;;;;;;;;;;4982920;28;20366;-77
2023/02/19 00:30:44;;;;;;;0.52;0.43;;;;;;;;;;4986904;28;20038;-77
2023/02/19 00:33:11;;;;;;;0.10;0.10;;;;;;;;;;4982918;28;21175;-77
2023/02/19 00:35:37;;;;;;;0.45;0.40;;;;;;;;;;4985060;28;20026;-76
2023/02/19 00:38:03;;;;;;;0.40;0.40;;;;;;;;;;4986448;28;20058;-76
2023/02/19 00:40:29;;;;;;;0.30;0.20;;;;;;;;;;4985184;28;20512;-76
2023/02/19 00:42:55;;;;;;;2.38;0.65;;;;;;;;;;4974822;28;20031;-76
2023/02/19 00:45:21;;;;;;;0.20;0.20;;;;;;;;;;4985779;28;20022;-77
2023/02/19 00:47:50;;;;;;;0.63;0.40;;;;;;;;;;4987062;28;20090;-76
2023/02/19 00:50:16;;;;;;;0.28;0.28;;;;;;;;;;4983304;28;20117;-76
2023/02/19 00:52:42;;;;;;;0.70;0.68;;;;;;;;;;4988555;28;20118;-76
2023/02/19 00:55:08;;;;;;;0.68;0.30;;;;;;;;;;4989040;28;20038;-76
2023/02/19 00:57:34;;;;;;;0.80;0.60;;;;;;;;;;4988243;28;20026;-77
2023/02/19 01:00:00;;;;;;;0.32;0.32;;;;;;;;;;4986898;28;20022;-76
2023/02/19 01:02:26;;;;;;;0.50;0.38;;;;;;;;;;4987682;28;20038;-77
2023/02/19 01:04:52;;;;;;;0.22;0.22;;;;;;;;;;4987984;28;20050;-76
2023/02/19 01:07:18;;;;;;;0.40;0.40;;;;;;;;;;4986051;28;20081;-76
2023/02/19 01:09:44;;;;;;;0.95;0.30;;;;;;;;;;4984894;28;20035;-76
2023/02/19 01:12:10;;;;;;;0.63;0.45;;;;;;;;;;4987258;28;20037;-77
2023/02/19 01:14:36;;;;;;;0.40;0.40;;;;;;;;;;4987767;28;20089;-77
2023/02/19 01:17:03;;;;;;;0.38;0.38;;;;;;;;;;4986609;28;20035;-76
2023/02/19 01:19:29;;;;;;;0.17;0.17;;;;;;;;;;4983248;28;20282;-77
2023/02/19 01:21:54;;;;;;;0.30;0.30;;;;;;;;;;4982722;28;20059;-77
2023/02/19 01:24:20;;;;;;;1.67;0.47;;;;;;;;;;4987414;28;20026;-77
2023/02/19 01:26:46;;;;;;;0.63;0.38;;;;;;;;;;4984860;28;20022;-77
2023/02/19 01:29:12;;;;;;;0.38;0.38;;;;;;;;;;4983443;28;20023;-77
2023/02/19 01:31:43;;;;;;;0.30;0.30;;;;;;;;;;4984424;28;20469;-77
2023/02/19 01:34:10;;;;;;;0.40;0.40;;;;;;;;;;4984811;28;20038;-76
2023/02/19 01:36:36;;;;;;;0.38;0.38;;;;;;;;;;4981726;28;20073;-76
2023/02/19 01:39:03;;;;;;;0.25;0.25;;;;;;;;;;4987230;28;21144;-77
2023/02/19 01:41:30;;;;;;;0.40;0.30;;;;;;;;;;4983784;28;20032;-77
2023/02/19 01:43:58;;;;;;;0.20;0.20;;;;;;;;;;4987730;28;20549;-77
2023/02/19 01:46:25;;;;;;;0.20;0.20;;;;;;;;;;4986609;28;20022;-77
2023/02/19 01:48:51;;;;;;;0.35;0.30;;;;;;;;;;4982154;28;20042;-77
2023/02/19 01:51:18;;;;;;;1.05;0.50;;;;;;;;;;4982488;28;20034;-77
2023/02/19 01:53:50;;;;;;;0.40;0.20;;;;;;;;;;4985514;28;20034;-76
2023/02/19 01:56:17;;;;;;;0.40;0.30;;;;;;;;;;4985921;28;20027;-77
2023/02/19 01:58:43;;;;;;;0.25;0.25;;;;;;;;;;4985037;28;20034;-77
2023/02/19 02:01:09;;;;;;;0.57;0.57;;;;;;;;;;4985240;28;20080;-76
2023/02/19 02:03:37;;;;;;;0.40;0.40;;;;;;;;;;4985045;28;20027;-76
2023/02/19 02:06:19;;;;;;;0.30;0.30;;;;;;;;;;4982235;28;20413;-76
2023/02/19 02:11:30;;;;;;;0.40;0.30;;;;;;;;;;4978766;28;20037;-77
2023/02/19 02:13:56;;;;;;;0.40;0.40;;;;;;;;;;4983975;28;20034;-77
2023/02/19 02:16:24;;;;;;;0.80;0.60;;;;;;;;;;4983712;28;20038;-77
2023/02/19 02:18:56;;;;;;;0.30;0.30;;;;;;;;;;4980910;28;20022;-76
2023/02/19 02:21:33;;;;;;;0.30;0.30;;;;;;;;;;4984531;28;20746;-77
2023/02/19 02:23:59;;;;;;;0.75;0.52;;;;;;;;;;4985202;28;20560;-77
2023/02/19 02:26:48;;;;;;;0.45;0.30;;;;;;;;;;4985981;28;20081;-76
2023/02/19 02:29:23;;;;;;;0.15;0.15;;;;;;;;;;4983946;28;20113;-76
2023/02/19 02:32:03;;;;;;;0.38;0.30;;;;;;;;;;4979161;28;20031;-76
2023/02/19 02:34:45;;;;;;;0.73;0.43;;;;;;;;;;4980848;28;20026;-77
2023/02/19 02:37:11;;;;;;;0.52;0.20;;;;;;;;;;4983580;28;20030;-76
2023/02/19 02:39:38;;;;;;;0.32;0.30;;;;;;;;;;4984206;28;20033;-77
2023/02/19 02:47:43;;;;;;;0.30;0.30;;;;;;;;;;4977156;28;20036;-76
2023/02/19 02:50:29;;;;;;;0.20;0.20;;;;;;;;;;4979728;28;20049;-77
2023/02/19 02:55:43;;;;;;;0.50;0.50;;;;;;;;;;4985462;28;20077;-77
2023/02/19 02:58:10;;;;;;;0.68;0.52;;;;;;;;;;4984682;28;20040;-77
2023/02/19 03:03:23;;;;;;;0.50;0.50;;;;;;;;;;4983866;28;20489;-77
2023/02/19 03:05:50;;;;;;;0.35;0.35;;;;;;;;;;4982383;28;20477;-77
2023/02/19 03:08:31;;;;;;;0.30;0.30;;;;;;;;;;4986678;28;20023;-77
2023/02/19 03:19:17;;;;;;;1.58;0.40;;;;;;;;;;4981507;28;20032;-77
2023/02/19 03:19:22;;;;;;;1.48;0.40;;;;;;;;;;4989129;28;20449;-76
2023/02/19 03:22:08;;;;;;;0.20;0.20;;;;;;;;;;4988262;28;20068;-76
2023/02/19 03:27:21;;;;;;;0.50;0.50;;;;;;;;;;4988637;28;20033;-76
2023/02/19 03:29:48;;;;;;;0.93;0.40;;;;;;;;;;4989108;28;20030;-76
2023/02/19 03:32:17;;;;;;;2.25;1.25;;;;;;;;;;4983121;28;20045;-77
2023/02/19 03:34:47;;;;;;;0.90;0.30;;;;;;;;;;4986278;28;20103;-76
2023/02/19 03:37:15;;;;;;;0.20;0.20;;;;;;;;;;4985836;28;20058;-76
2023/02/19 03:39:44;;;;;;;0.75;0.63;;;;;;;;;;4990007;28;20034;-77
2023/02/19 03:42:17;;;;;;;1.45;0.32;;;;;;;;;;4985305;28;20359;-76
2023/02/19 03:44:55;;;;;;;0.22;0.22;;;;;;;;;;4989005;28;20040;-76
2023/02/19 03:47:24;;;;;;;0.20;0.20;;;;;;;;;;4989006;28;20022;-76
2023/02/19 03:50:02;;;;;;;0.35;0.35;;;;;;;;;;4989513;28;20397;-76
2023/02/19 03:52:44;;;;;;;0.30;0.30;;;;;;;;;;4984174;28;20031;-76
2023/02/19 03:55:10;;;;;;;;;;;;;;;;;;4988597;28;20084;-76
2023/02/19 03:57:39;;;;;;;0.28;0.28;;;;;;;;;;4987902;28;19918;-76
2023/02/19 04:00:09;;;;;;;0.65;0.40;;;;;;;;;;4988532;28;20038;-76
2023/02/19 04:02:40;;;;;;;0.60;0.40;;;;;;;;;;4987193;28;20033;-77
2023/02/19 04:05:09;;;;;;;0.30;0.30;;;;;;;;;;4981371;28;20077;-75
2023/02/19 04:07:38;;;;;;;0.35;0.35;;;;;;;;;;4988489;28;20036;-76
2023/02/19 04:10:07;;;;;;;0.45;0.40;;;;;;;;;;4986415;28;20084;-76
2023/02/19 04:12:34;;;;;;;1.00;0.43;;;;;;;;;;4986473;28;20199;-76
2023/02/19 04:15:06;;;;;;;2.00;0.63;;;;;;;;;;4986584;28;20125;-76
2023/02/19 04:17:34;;;;;;;0.38;0.30;;;;;;;;;;4987290;28;20042;-76
2023/02/19 04:20:02;;;;;;;0.20;0.20;;;;;;;;;;4990872;28;20037;-76
2023/02/19 04:22:28;;;;;;;0.85;0.25;;;;;;;;;;4987273;28;20030;-76
2023/02/19 04:24:55;;;;;;;0.70;0.52;;;;;;;;;;4984474;28;20041;-76
2023/02/19 04:27:21;;;;;;;0.20;0.20;;;;;;;;;;4987857;28;20023;-76
2023/02/19 04:29:47;;;;;;;0.50;0.35;;;;;;;;;;4989802;28;20401;-76
2023/02/19 04:32:13;;;;;;;0.55;0.30;;;;;;;;;;4979656;28;20366;-76
2023/02/19 04:34:39;;;;;;;0.45;0.32;;;;;;;;;;4986544;28;20117;-76
2023/02/19 04:37:05;;;;;;;0.20;0.20;;;;;;;;;;4989509;28;20046;-76
2023/02/19 04:39:31;;;;;;;5.28;0.43;;;;;;;;;;4987941;28;20038;-76
2023/02/19 04:41:57;;;;;;;0.30;0.30;;;;;;;;;;4985983;28;20061;-76
2023/02/19 04:44:23;;;;;;;0.70;0.30;;;;;;;;;;4988082;28;20085;-76
2023/02/19 04:46:49;;;;;;;0.88;0.40;;;;;;;;;;4981579;28;20038;-76
2023/02/19 04:49:15;;;;;;;0.20;0.20;;;;;;;;;;4989864;28;20023;-76
2023/02/19 04:51:41;;;;;;;0.30;0.30;;;;;;;;;;4982675;28;20397;-76
2023/02/19 04:54:07;;;;;;;0.30;0.30;;;;;;;;;;4989180;28;20038;-76
2023/02/19 04:56:33;;;;;;;0.45;0.30;;;;;;;;;;4986899;28;20026;-75
2023/02/19 04:58:59;;;;;;;0.30;0.28;;;;;;;;;;4987171;28;20026;-76
2023/02/19 05:01:25;;;;;;;0.22;0.22;;;;;;;;;;4987517;28;20026;-76
2023/02/19 05:03:52;;;;;;;0.75;0.40;;;;;;;;;;4988985;28;20027;-76
2023/02/19 05:06:18;;;;;;;2.03;0.30;;;;;;;;;;4983081;28;20057;-76
2023/02/19 05:08:44;;;;;;;0.20;0.20;;;;;;;;;;4989036;28;20471;-76
2023/02/19 05:11:11;;;;;;;0.50;0.50;;;;;;;;;;4983871;28;20026;-76
2023/02/19 05:13:37;;;;;;;0.20;0.20;;;;;;;;;;4986776;28;20498;-77
2023/02/19 05:16:06;;;;;;;0.32;0.30;;;;;;;;;;4988553;28;20026;-76
2023/02/19 05:18:33;;;;;;;0.30;0.30;;;;;;;;;;4986452;28;20038;-76
2023/02/19 05:20:59;;;;;;;0.55;0.47;;;;;;;;;;4987001;28;20038;-76
2023/02/19 05:23:26;;;;;;;0.20;0.20;;;;;;;;;;4987683;28;20046;-76
2023/02/19 05:25:51;;;;;;;0.10;0.10;;;;;;;;;;4985056;28;20023;-76
2023/02/19 05:28:18;;;;;;;0.20;0.20;;;;;;;;;;4983750;28;20484;-76
2023/02/19 05:30:45;;;;;;;0.28;0.28;;;;;;;;;;4987110;28;20038;-76
2023/02/19 05:33:12;;;;;;;0.20;0.20;;;;;;;;;;4985975;28;20073;-76
2023/02/19 05:35:42;;;;;;;0.20;0.20;;;;;;;;;;4987429;28;20045;-76
2023/02/19 05:38:08;;;;;;;0.22;0.22;;;;;;;;;;4987934;28;20109;-76
2023/02/19 05:40:34;;;;;;;0.40;0.25;;;;;;;;;;4986946;28;20563;-76
2023/02/19 05:43:00;;;;;;;0.30;0.30;;;;;;;;;;4985411;28;20078;-76
2023/02/19 05:45:26;;;;;;;0.77;0.57;;;;;;;;;;4988215;28;20031;-76
2023/02/19 05:47:52;;;;;;;0.20;0.20;;;;;;;;;;4985382;28;20116;-76
2023/02/19 05:50:18;;;;;;;0.20;0.20;;;;;;;;;;4984288;28;20489;-76
2023/02/19 05:52:44;;;;;;;0.30;0.30;;;;;;;;;;4984548;28;20477;-76
2023/02/19 05:55:10;;;;;;;0.30;0.30;;;;;;;;;;4978618;28;20149;-76
2023/02/19 05:57:40;;;;;;;0.82;0.40;;;;;;;;;;4986672;28;20569;-76
2023/02/19 06:00:07;;;;;;;0.35;0.30;;;;;;;;;;4985862;28;20041;-76
2023/02/19 06:02:33;;;;;;;0.52;0.40;;;;;;;;;;4986335;28;20027;-76
2023/02/19 06:04:59;;;;;;;0.55;0.20;;;;;;;;;;4980218;28;20096;-76
2023/02/19 06:07:25;;;;;;;0.40;0.35;;;;;;;;;;4987634;28;20030;-76
2023/02/19 06:09:51;;;;;;;0.20;0.13;;;;;;;;;;4983404;28;20148;-77
2023/02/19 06:12:17;;;;;;;0.28;0.28;;;;;;;;;;4986393;28;20030;-77
2023/02/19 06:14:43;;;;;;;0.55;0.20;;;;;;;;;;4982997;28;20088;-77
2023/02/19 06:17:08;;;;;;;0.22;0.22;;;;;;;;;;4985323;28;20042;-77
2023/02/19 06:19:34;;;;;;;0.57;0.30;;;;;;;;;;4981851;28;20033;-76
2023/02/19 06:22:01;;;;;;;1.35;0.30;;;;;;;;;;4982579;28;20142;-77
2023/02/19 06:24:26;;;;;;;0.22;0.20;;;;;;;;;;4982706;28;20026;-77
2023/02/19 06:26:52;;;;;;;0.60;0.20;;;;;;;;;;4981631;28;20031;-77
2023/02/19 06:29:18;;;;;;;0.10;0.10;;;;;;;;;;4985220;28;20440;-76
2023/02/19 06:31:45;;;;;;;0.30;0.30;;;;;;;;;;4981633;28;20034;-77
2023/02/19 06:34:11;;;;;;;0.43;0.43;;;;;;;;;;4975990;28;20027;-77
2023/02/19 06:36:37;;;;;;;0.20;0.20;;;;;;;;;;4985705;28;20030;-77
2023/02/19 06:39:03;;;;;;;0.55;0.30;;;;;;;;;;4980980;28;20042;-76
2023/02/19 06:41:29;;;;;;;0.30;0.30;;;;;;;;;;4978318;28;20037;-77
2023/02/19 06:43:56;;;;;;;0.43;0.25;;;;;;;;;;4983619;28;20023;-77
2023/02/19 06:46:22;;;;;;;0.30;0.30;;;;;;;;;;4983447;28;20105;-77
2023/02/19 06:48:48;;;;;;;0.22;0.22;;;;;;;;;;4983191;28;20432;-77
2023/02/19 06:51:17;;;;;;;0.22;0.20;;;;;;;;;;4984915;28;20026;-77
2023/02/19 06:53:43;;;;;;;0.85;0.30;;;;;;;;;;4983828;28;20029;-78
2023/02/19 06:56:26;;;;;;;0.80;0.43;;;;;;;;;;4985235;28;20025;-77
2023/02/19 06:58:53;;;;;;;0.30;0.30;;;;;;;;;;4985734;28;20076;-77
2023/02/19 07:01:19;;;;;;;0.20;0.20;;;;;;;;;;4978210;28;20242;-78
2023/02/19 07:03:45;;;;;;;0.20;0.20;;;;;;;;;;4981031;28;20035;-78
2023/02/19 07:06:11;;;;;;;0.32;0.30;;;;;;;;;;4983934;28;20156;-77
2023/02/19 07:08:37;;;;;;;0.63;0.30;;;;;;;;;;4985049;28;20038;-77
2023/02/19 07:11:03;;;;;;;0.32;0.30;;;;;;;;;;4983898;28;20026;-77
2023/02/19 07:13:29;;;;;;;0.20;0.20;;;;;;;;;;4980008;28;20685;-76
2023/02/19 07:15:59;;;;;;;0.13;0.13;;;;;;;;;;4985773;28;20049;-77
2023/02/19 07:18:25;;;;;;;0.22;0.22;;;;;;;;;;4986041;28;20038;-77
2023/02/19 07:20:51;;;;;;;0.25;0.20;;;;;;;;;;4986144;28;20022;-76
2023/02/19 07:23:17;;;;;;;1.65;0.60;;;;;;;;;;4983420;28;20125;-76
2023/02/19 07:25:43;;;;;;;0.40;0.40;;;;;;;;;;4983201;28;20027;-72
2023/02/19 07:28:09;;;;;;;1.02;0.95;;;;;;;;;;4981926;28;20405;-75
2023/02/19 07:30:35;;;;;;;0.47;0.40;;;;;;;;;;4980230;28;20476;-79
2023/02/19 07:33:01;;;;;;;0.30;0.30;;;;;;;;;;4975709;28;20029;-81
2023/02/19 07:35:27;;;;;;;0.30;0.30;;;;;;;;;;4982354;28;20104;-85
2023/02/19 07:37:53;;;;;;;0.60;0.40;;;;;;;;;;4984615;28;20030;-75
2023/02/19 07:40:25;;;;;;;0.93;0.40;;;;;;;;;;4986856;28;20511;-77
2023/02/19 07:42:51;;;;;;;0.32;0.32;;;;;;;;;;4960355;28;20108;-77
2023/02/19 07:45:17;;;;;;;0.20;0.20;;;;;;;;;;4976502;28;20022;-79
2023/02/19 07:47:43;;;;;;;0.20;0.20;;;;;;;;;;4986376;28;20056;-77
2023/02/19 07:50:09;;;;;;;1.08;0.38;;;;;;;;;;4983888;28;20031;-77
2023/02/19 07:52:35;;;;;;;0.38;0.38;;;;;;;;;;4984903;28;20631;-77
2023/02/19 07:55:01;;;;;;;0.50;0.30;;;;;;;;;;4984460;28;20046;-76
2023/02/19 07:57:30;;;;;;;1.55;0.20;;;;;;;;;;4985456;28;20030;-77
2023/02/19 07:59:57;;;;;;;0.20;0.20;;;;;;;;;;4981831;28;20038;-76
2023/02/19 08:05:09;;;;;;;1.83;0.30;;;;;;;;;;4972664;28;20463;-76
2023/02/19 08:07:36;;;;;;;0.57;0.30;;;;;;;;;;4995570;28;20473;-73
2023/02/19 08:15:39;;;;;;;0.60;0.43;;;;;;;;;;4996827;28;20029;-78
2023/02/19 08:18:06;;;;;;;0.43;0.40;;;;;;;;;;4991518;28;20034;-76
2023/02/19 08:20:32;;;;;;;1.02;0.57;;;;;;;;;;4986555;28;20040;-76
2023/02/19 08:22:58;;;;;;;2.28;0.30;;;;;;;;;;4990497;28;20042;-79
2023/02/19 08:25:24;;;;;;;0.52;0.22;;;;;;;;;;4987393;28;20030;-79
2023/02/19 08:27:50;;;;;;;0.70;0.40;;;;;;;;;;4981044;28;20091;-79
2023/02/19 08:30:16;;;;;;;0.60;0.43;;;;;;;;;;4989563;28;20121;-79
2023/02/19 08:32:42;;;;;;;0.30;0.30;;;;;;;;;;4991804;28;20088;-79
2023/02/19 08:35:08;;;;;;;0.38;0.38;;;;;;;;;;4990186;28;20030;-79
2023/02/19 08:37:34;;;;;;;0.68;0.63;;;;;;;;;;4989777;28;20073;-79
2023/02/19 08:40:00;;;;;;;0.40;0.25;;;;;;;;;;4989250;28;20022;-80
2023/02/19 08:42:28;;;;;;;0.25;0.25;;;;;;;;;;4991863;28;20541;-80
2023/02/19 08:44:54;;;;;;;0.20;0.20;;;;;;;;;;4985792;28;20105;-79
2023/02/19 08:47:20;;;;;;;1.92;0.38;;;;;;;;;;4987689;28;20042;-79
2023/02/19 08:49:46;;;;;;;2.85;0.50;;;;;;;;;;4990041;28;20080;-79
2023/02/19 08:52:12;;;;;;;0.50;0.40;;;;;;;;;;4990046;28;20584;-79
2023/02/19 08:54:38;;;;;;;2.90;0.50;;;;;;;;;;4988154;28;20085;-79
2023/02/19 08:57:04;;;;;;;0.47;0.35;;;;;;;;;;4988707;28;20046;-79
2023/02/19 08:59:30;;;;;;;0.43;0.32;;;;;;;;;;4989525;28;20030;-80
2023/02/19 09:01:58;;;;;;;0.20;0.20;;;;;;;;;;4989481;28;20036;-79
2023/02/19 09:04:23;;;;;;;0.98;0.30;;;;;;;;;;4989429;28;20050;-79
2023/02/19 09:06:49;;;;;;;0.80;0.40;;;;;;;;;;4984240;28;20034;-80
2023/02/19 09:09:15;;;;;;;1.00;0.30;;;;;;;;;;4987600;28;20118;-79
2023/02/19 09:11:41;;;;;;;0.55;0.30;;;;;;;;;;4989447;28;20027;-78
2023/02/19 09:14:08;;;;;;;0.75;0.38;;;;;;;;;;4986180;28;20030;-78
2023/02/19 09:16:34;;;;;;;0.32;0.32;;;;;;;;;;4984773;28;20129;-78
2023/02/19 09:19:00;;;;;;;1.30;0.52;;;;;;;;;;4989445;28;20023;-79
2023/02/19 09:21:26;;;;;;;0.40;0.40;;;;;;;;;;4989350;28;20026;-79
2023/02/19 09:23:52;;;;;;;0.32;0.32;;;;;;;;;;4986256;28;20109;-79
2023/02/19 09:26:18;;;;;;;0.57;0.50;;;;;;;;;;4988463;28;20477;-78
2023/02/19 09:28:44;;;;;;;0.65;0.65;;;;;;;;;;4987908;28;20026;-78
2023/02/19 09:31:12;;;;;;;2.13;0.40;;;;;;;;;;4979421;28;20035;-79
2023/02/19 09:33:38;;;;;;;1.38;0.80;;;;;;;;;;4987353;28;20552;-80
2023/02/19 09:36:04;;;;;;;0.45;0.30;;;;;;;;;;4988969;28;20126;-80
2023/02/19 09:38:30;;;;;;;0.40;0.40;;;;;;;;;;4986640;28;20030;-79
2023/02/19 09:40:56;;;;;;;0.55;0.32;;;;;;;;;;4987243;28;20030;-78
2023/02/19 09:43:23;;;;;;;0.38;0.32;;;;;;;;;;4985973;28;20025;-79
2023/02/19 09:45:52;;;;;;;0.30;0.30;;;;;;;;;;4987124;28;20040;-79
2023/02/19 09:48:18;;;;;;;0.68;0.50;;;;;;;;;;4988463;28;20041;-78
2023/02/19 09:50:47;;;;;;;0.47;0.40;;;;;;;;;;4987354;28;20521;-80
2023/02/19 09:53:33;;;;;;;1.38;0.30;;;;;;;;;;4983719;28;20042;-79
2023/02/19 09:56:00;;;;;;;0.30;0.30;;;;;;;;;;4987214;28;20034;-78
2023/02/19 09:58:37;;;;;;;1.00;0.50;;;;;;;;;;4988472;28;20034;-79
2023/02/19 10:01:04;;;;;;;0.10;0.10;;;;;;;;;;4987453;28;20034;-79
2023/02/19 10:03:33;;;;;;;0.20;0.20;;;;;;;;;;4988420;28;20022;-79
2023/02/19 10:06:01;;;;;;;1.27;0.30;;;;;;;;;;4984124;28;20046;-78
2023/02/19 10:08:30;;;;;;;0.57;0.20;;;;;;;;;;4987131;28;20370;-78
2023/02/19 10:10:56;;;;;;;0.50;0.20;;;;;;;;;;4987976;28;20499;-80
2023/02/19 10:13:24;;;;;;;1.10;0.32;;;;;;;;;;4988498;28;20033;-79
2023/02/19 10:15:52;;;;;;;2.20;0.75;;;;;;;;;;4986374;28;20035;-79
2023/02/19 10:18:20;;;;;;;0.50;0.30;;;;;;;;;;4986572;28;20030;-79
2023/02/19 10:20:46;;;;;;;0.55;0.40;;;;;;;;;;4988118;28;20113;-80
2023/02/19 10:23:14;;;;;;;0.35;0.35;;;;;;;;;;4984969;28;20034;-80
2023/02/19 10:25:42;;;;;;;0.30;0.30;;;;;;;;;;4987019;28;20417;-79
2023/02/19 10:28:14;;;;;;;1.83;0.80;;;;;;;;;;4987806;28;20445;-78
2023/02/19 10:30:40;;;;;;;1.38;0.47;;;;;;;;;;4988388;28;20030;-79
2023/02/19 10:33:11;;;;;;;0.28;0.28;;;;;;;;;;4987289;28;20046;-78
2023/02/19 10:35:38;;;;;;;0.30;0.30;;;;;;;;;;4985125;28;20034;-78
2023/02/19 10:38:07;;;;;;;0.08;0.08;;;;;;;;;;4987256;28;20097;-79
2023/02/19 10:40:33;;;;;;;0.90;0.50;;;;;;;;;;4987814;28;20029;-79
2023/02/19 10:43:01;;;;;;;1.95;0.40;;;;;;;;;;4984185;28;20037;-77
2023/02/19 10:45:34;;;;;;;2.20;0.30;;;;;;;;;;4983751;28;20049;-77
2023/02/19 10:48:00;;;;;;;1.73;0.30;;;;;;;;;;4978017;28;20034;-78
2023/02/19 10:50:31;;;;;;;1.23;0.70;;;;;;;;;;4984810;28;20120;-73
2023/02/19 10:52:58;;;;;;;0.55;0.55;;;;;;;;;;4987734;28;20037;-78
2023/02/19 10:55:24;;;;;;;0.10;0.10;;;;;;;;;;4983335;28;20093;-76
2023/02/19 10:57:50;;;;;;;1.30;0.30;;;;;;;;;;4990031;28;20461;-75
2023/02/19 11:00:16;;;;;;;0.68;0.35;;;;;;;;;;4997006;28;20065;-75
2023/02/19 11:02:43;;;;;;;0.22;0.22;;;;;;;;;;4985375;28;20412;-76
2023/02/19 11:05:13;;;;;;;0.50;0.38;;;;;;;;;;4985894;28;20054;-76
2023/02/19 11:07:43;;;;;;;1.20;0.52;;;;;;;;;;4981078;28;20030;-77
2023/02/19 11:10:18;;;;;;;6.30;0.68;;;;;;;;;;4981251;28;20042;-76
2023/02/19 11:12:48;;;;;;;1.52;0.40;;;;;;;;;;4978024;28;20458;-76
2023/02/19 11:15:34;;;;;;;0.50;0.35;;;;;;;;;;4987376;28;20034;-77
2023/02/19 11:18:08;;;;;;;2.05;0.50;;;;;;;;;;4987490;28;20040;-76
2023/02/19 11:20:35;;;;;;;3.95;0.60;;;;;;;;;;4986884;28;20088;-76
2023/02/19 11:23:05;;;;;;;1.77;0.40;;;;;;;;;;4985296;28;20027;-77
2023/02/19 11:25:32;;;;;;;0.88;0.60;;;;;;;;;;4987850;28;20032;-77
2023/02/19 11:28:05;;;;;;;3.20;0.45;;;;;;;;;;4987644;28;20026;-76
2023/02/19 11:30:31;;;;;;;2.75;1.00;;;;;;;;;;4987520;28;20061;-76
2023/02/19 11:33:18;;;;;;;1.02;0.70;;;;;;;;;;4986640;28;20054;-76
2023/02/19 11:35:45;;;;;;;0.30;0.30;;;;;;;;;;4987381;28;20573;-77
2023/02/19 11:38:11;;;;;;;1.23;0.80;;;;;;;;;;4991047;28;20026;-76
2023/02/19 11:40:43;;;;;;;1.30;0.43;;;;;;;;;;4991017;28;20035;-76
2023/02/19 11:43:17;;;;;;;1.00;0.70;;;;;;;;;;4986475;28;20022;-76
2023/02/19 11:46:08;;;;;;;1.95;0.95;;;;;;;;;;4991078;28;20034;-76
2023/02/19 11:48:39;;;;;;;0.93;0.47;;;;;;;;;;4991118;28;20037;-77
2023/02/19 11:51:12;;;;;;;0.90;0.60;;;;;;;;;;4990074;28;20026;-76
2023/02/19 11:53:46;;;;;;;2.85;0.90;;;;;;;;;;4989849;28;20045;-76
2023/02/19 11:56:20;;;;;;;1.20;0.30;;;;;;;;;;4988916;28;20080;-76
2023/02/19 11:58:58;;;;;;;1.05;0.35;;;;;;;;;;4985187;28;20026;-76
2023/02/19 12:01:30;;;;;;;2.65;0.95;;;;;;;;;;4990459;28;20575;-76
2023/02/19 12:04:18;;;;;;;1.60;0.43;;;;;;;;;;4985829;28;20109;-77
2023/02/19 12:06:53;;;;;;;0.30;0.25;;;;;;;;;;4990239;28;20374;-76
2023/02/19 12:09:31;;;;;;;0.30;0.28;;;;;;;;;;4989858;28;20018;-76
2023/02/19 12:12:15;;;;;;;0.45;0.40;;;;;;;;;;4988731;28;20030;-78
2023/02/19 12:14:50;;;;;;;1.05;0.30;;;;;;;;;;4989170;28;20029;-75
2023/02/19 12:17:33;;;;;;;0.40;0.40;;;;;;;;;;4988208;28;20511;-74
2023/02/19 12:20:08;;;;;;;2.88;0.43;;;;;;;;;;4987666;28;20026;-74
2023/02/19 12:22:44;;;;;;;2.67;0.88;;;;;;;;;;4986381;28;20056;-73
2023/02/19 12:25:25;;;;;;;0.50;0.40;;;;;;;;;;4990304;28;20026;-73
2023/02/19 12:28:09;;;;;;;0.30;0.30;;;;;;;;;;4990029;28;20569;-73
2023/02/19 12:30:53;;;;;;;0.40;0.20;;;;;;;;;;4986556;28;20041;-73
2023/02/19 12:33:20;;;;;;;0.45;0.32;;;;;;;;;;4985650;28;20110;-73
2023/02/19 12:36:08;;;;;;;0.60;0.40;;;;;;;;;;4990256;28;20034;-73
2023/02/19 12:38:44;;;;;;;0.30;0.30;;;;;;;;;;4990030;28;20168;-74
2023/02/19 12:41:30;;;;;;;1.23;0.50;;;;;;;;;;4986880;28;20481;-73
2023/02/19 12:43:59;;;;;;;0.65;0.30;;;;;;;;;;4986188;28;20037;-74
2023/02/19 12:46:31;;;;;;;0.90;0.40;;;;;;;;;;4987562;28;20027;-74
2023/02/19 12:49:09;;;;;;;0.25;0.25;;;;;;;;;;4989633;28;20477;-74
2023/02/19 12:51:49;;;;;;;0.63;0.30;;;;;;;;;;4990009;28;20034;-75
2023/02/19 12:54:24;;;;;;;0.45;0.35;;;;;;;;;;4983995;28;20158;-75
2023/02/19 12:56:57;;;;;;;0.63;0.63;;;;;;;;;;4988302;28;20042;-75
2023/02/19 12:59:35;;;;;;;1.45;0.45;;;;;;;;;;4989857;28;20089;-75
2023/02/19 13:02:04;;;;;;;0.20;0.20;;;;;;;;;;4989547;28;20053;-75
2023/02/19 13:04:36;;;;;;;0.30;0.30;;;;;;;;;;4985209;28;20164;-74
2023/02/19 13:07:18;;;;;;;1.30;0.65;;;;;;;;;;4985824;28;20052;-75
2023/02/19 13:09:55;;;;;;;3.10;0.35;;;;;;;;;;4985601;28;20037;-74
2023/02/19 13:12:33;;;;;;;0.40;0.40;;;;;;;;;;4989587;28;20026;-74
2023/02/19 13:15:01;;;;;;;2.33;0.50;;;;;;;;;;4989183;28;20469;-73
2023/02/19 13:17:45;;;;;;;1.95;0.40;;;;;;;;;;4986734;28;20049;-75
2023/02/19 13:20:25;;;;;;;4.28;0.38;;;;;;;;;;4989005;28;20031;-74
2023/02/19 13:25:56;;;;;;;1.98;0.40;;;;;;;;;;4988753;28;20041;-74
2023/02/19 13:28:40;;;;;;;1.52;0.47;;;;;;;;;;4988474;28;20034;-74
2023/02/19 13:31:14;;;;;;;0.38;0.22;;;;;;;;;;4988868;28;20031;-74
2023/02/19 13:33:46;;;;;;;0.10;0.10;;;;;;;;;;4988791;28;20100;-74
2023/02/19 13:36:14;;;;;;;0.65;0.40;;;;;;;;;;4988650;28;20092;-74
2023/02/19 13:38:45;;;;;;;1.10;0.43;;;;;;;;;;4987720;28;20034;-74
2023/02/19 13:41:26;;;;;;;1.92;0.52;;;;;;;;;;4988877;28;20022;-74
2023/02/19 13:43:56;;;;;;;0.30;0.30;;;;;;;;;;4977929;28;20382;-74
2023/02/19 13:46:24;;;;;;;2.63;0.63;;;;;;;;;;4989453;28;20018;-73
2023/02/19 13:49:12;;;;;;;1.85;1.05;;;;;;;;;;4987717;28;20046;-74
2023/02/19 13:51:48;;;;;;;0.73;0.50;;;;;;;;;;4988178;28;20026;-74
2023/02/19 13:54:20;;;;;;;0.65;0.38;;;;;;;;;;4983461;28;20027;-74
2023/02/19 13:56:46;;;;;;;1.17;0.28;;;;;;;;;;4987879;28;20080;-74
2023/02/19 13:59:15;;;;;;;0.20;0.20;;;;;;;;;;4984167;28;20022;-74
2023/02/19 14:01:50;;;;;;;0.52;0.40;;;;;;;;;;4987038;28;20031;-74
2023/02/19 14:04:31;;;;;;;1.48;0.40;;;;;;;;;;4982820;28;20046;-74
2023/02/19 14:07:03;;;;;;;0.60;0.50;;;;;;;;;;4987941;28;20033;-73
2023/02/19 14:09:35;;;;;;;0.40;0.40;;;;;;;;;;4988581;28;20044;-73
2023/02/19 14:12:04;;;;;;;0.45;0.28;;;;;;;;;;4985578;28;20049;-73
2023/02/19 14:14:40;;;;;;;0.85;0.50;;;;;;;;;;4987033;28;20044;-74
2023/02/19 14:17:08;;;;;;;0.20;0.20;;;;;;;;;;4988317;28;20470;-74
2023/02/19 14:19:40;;;;;;;0.28;0.28;;;;;;;;;;4987491;28;20037;-74
2023/02/19 14:22:25;;;;;;;0.25;0.25;;;;;;;;;;4985927;28;20113;-74
2023/02/19 14:24:52;;;;;;;0.20;0.20;;;;;;;;;;4980758;28;20117;-74
2023/02/19 14:27:19;;;;;;;0.30;0.30;;;;;;;;;;4987693;28;20028;-74
2023/02/19 14:29:45;;;;;;;0.40;0.40;;;;;;;;;;4987924;28;20457;-74
2023/02/19 14:32:18;;;;;;;0.25;0.25;;;;;;;;;;4981675;28;20493;-74
2023/02/19 14:34:45;;;;;;;0.82;0.32;;;;;;;;;;4986370;28;20053;-73
2023/02/19 14:37:17;;;;;;;0.35;0.35;;;;;;;;;;4985938;28;20040;-74
2023/02/19 14:39:44;;;;;;;0.28;0.28;;;;;;;;;;4984430;28;20033;-74
2023/02/19 14:42:13;;;;;;;0.45;0.30;;;;;;;;;;4981469;28;20026;-74
2023/02/19 14:44:48;;;;;;;0.60;0.32;;;;;;;;;;4982453;28;20062;-74
2023/02/19 14:47:21;;;;;;;0.20;0.20;;;;;;;;;;4987750;28;20030;-74
2023/02/19 14:49:48;;;;;;;0.13;0.13;;;;;;;;;;4985173;28;20046;-73
2023/02/19 14:52:20;;;;;;;0.43;0.32;;;;;;;;;;4987614;28;20046;-74
2023/02/19 14:54:52;;;;;;;0.20;0.20;;;;;;;;;;4986352;28;20033;-73
2023/02/19 14:57:23;;;;;;;1.27;0.43;;;;;;;;;;4985398;28;20034;-74
2023/02/19 14:59:59;;;;;;;0.20;0.20;;;;;;;;;;4986786;28;20132;-74
2023/02/19 15:02:26;;;;;;;1.35;0.32;;;;;;;;;;4987580;28;20050;-74
2023/02/19 15:04:53;;;;;;;0.32;0.32;;;;;;;;;;4987270;28;20035;-74
2023/02/19 15:07:22;;;;;;;0.50;0.50;;;;;;;;;;4986272;28;20034;-74
2023/02/19 15:09:49;;;;;;;0.35;0.30;;;;;;;;;;4991293;28;20031;-74
2023/02/19 15:12:17;;;;;;;0.30;0.30;;;;;;;;;;4989655;28;20268;-74
2023/02/19 15:14:44;;;;;;;0.20;0.20;;;;;;;;;;4987132;28;20023;-74
2023/02/19 15:17:13;;;;;;;0.25;0.22;;;;;;;;;;4989782;28;20038;-74
2023/02/19 15:19:39;;;;;;;1.33;0.30;;;;;;;;;;4991428;28;20044;-74
2023/02/19 15:22:05;;;;;;;0.38;0.32;;;;;;;;;;4988778;28;20072;-74
2023/02/19 15:24:31;;;;;;;2.08;0.30;;;;;;;;;;4991513;28;20022;-74
2023/02/19 15:26:57;;;;;;;0.63;0.30;;;;;;;;;;4987894;28;20422;-79
2023/02/19 15:29:24;;;;;;;1.88;1.17;;;;;;;;;;4987766;28;20536;-79